Time;durP1;ratioP1;P1;durP2;ratioP2;P2;SDS_P1;SDS_P2;PMS_P1;PMS_P2;Temp;Humidity;BMP_temperature;BMP_pressure;BME280_temperature;BME280_humidity;BME280_pressure;Samples;Min_cycle;Max_cycle;Signal;HPM_P1;HPM_P2
2022/03/25 00:01:38;;;;;;;13.30;8.80;;;;;;;3.78;53.71;97619.46;108118;1270;30261;-74
2022/03/25 00:04:07;;;;;;;;;;;;;;;3.71;53.94;97615.64;108123;1270;33018;-74
2022/03/25 00:06:39;;;;;;;17.50;11.50;;;;;;;3.67;54.19;97614.21;108047;1270;42259;-74
2022/03/25 00:09:09;;;;;;;16.50;10.20;;;;;;;3.66;54.00;97610.33;108090;1268;47447;-74
2022/03/25 00:11:41;;;;;;;17.90;10.70;;;;;;;3.61;54.12;97608.70;108084;1270;31424;-74
2022/03/25 00:14:14;;;;;;;22.30;11.90;;;;;;;3.57;54.28;97606.50;108077;1270;48566;-74
2022/03/25 00:16:45;;;;;;;22.00;11.70;;;;;;;3.54;54.22;97607.29;108116;1268;34210;-74
2022/03/25 00:19:16;;;;;;;18.90;10.70;;;;;;;3.52;54.42;97602.90;108086;1269;42098;-74
2022/03/25 00:21:47;;;;;;;16.20;9.40;;;;;;;3.51;54.31;97601.57;108132;1270;36512;-74
2022/03/25 00:24:17;;;;;;;22.60;11.00;;;;;;;3.46;54.78;97599.33;108069;1270;37993;-74
2022/03/25 00:26:47;;;;;;;;;;;;;;;3.43;54.89;97596.73;108126;1270;29742;-74
2022/03/25 00:29:18;;;;;;;21.40;11.90;;;;;;;3.48;54.90;97596.73;108131;1270;32449;-73
2022/03/25 00:31:49;;;;;;;22.10;12.70;;;;;;;3.57;54.60;97593.64;108133;1270;31449;-74
2022/03/25 00:34:18;;;;;;;;;;;;;;;3.65;54.35;97593.80;107953;1270;194908;-74
2022/03/25 00:36:49;;;;;;;21.00;12.80;;;;;;;3.65;54.41;97592.17;108089;1270;46374;-74
2022/03/25 00:39:19;;;;;;;18.30;11.10;;;;;;;3.68;54.35;97587.83;108037;1270;29760;-73
2022/03/25 00:41:50;;;;;;;22.50;13.30;;;;;;;3.71;54.35;97584.52;108127;1270;35388;-74
2022/03/25 00:44:21;;;;;;;22.20;12.30;;;;;;;3.73;54.28;97583.91;108085;1268;46006;-74
2022/03/25 00:46:50;;;;;;;;;;;;;;;3.78;54.33;97582.17;108153;1268;34176;-73
2022/03/25 00:49:22;;;;;;;23.00;13.10;;;;;;;3.76;54.24;97581.70;108109;1268;45207;-74
2022/03/25 00:51:54;;;;;;;21.40;12.70;;;;;;;3.74;54.11;97580.96;108100;1270;40952;-74
2022/03/25 00:54:24;;;;;;;21.40;13.00;;;;;;;3.73;54.10;97574.30;108246;1268;43705;-73
2022/03/25 00:56:54;;;;;;;;;;;;;;;3.72;54.17;97571.17;108198;1268;30425;-73
2022/03/25 00:59:25;;;;;;;20.50;12.30;;;;;;;3.71;53.89;97573.97;108124;1270;39642;-73
2022/03/25 01:01:56;;;;;;;22.40;12.90;;;;;;;3.73;53.94;97572.58;108169;1270;29577;-73
2022/03/25 01:04:28;;;;;;;23.70;14.50;;;;;;;3.73;54.09;97570.59;108128;1270;43497;-74
2022/03/25 01:06:59;;;;;;;22.60;13.90;;;;;;;3.81;54.17;97569.34;108158;1270;39075;-74
2022/03/25 01:09:30;;;;;;;22.50;13.60;;;;;;;3.86;53.92;97568.50;108115;1268;38566;-74
2022/03/25 01:12:01;;;;;;;26.10;14.00;;;;;;;3.84;53.95;97571.27;108128;1269;40852;-74
2022/03/25 01:14:32;;;;;;;21.50;14.20;;;;;;;3.87;54.07;97568.70;108090;1270;42901;-74
2022/03/25 01:17:02;;;;;;;;;;;;;;;3.89;53.90;97570.34;108142;1270;42378;-74
2022/03/25 01:19:34;;;;;;;21.40;13.90;;;;;;;3.84;53.75;97569.13;108110;1270;35944;-74
2022/03/25 01:22:05;;;;;;;23.40;13.70;;;;;;;3.79;53.93;97568.09;108087;1268;40818;-74
2022/03/25 01:24:36;;;;;;;25.70;14.10;;;;;;;3.77;53.98;97570.08;108122;1268;34198;-74
2022/03/25 01:27:07;;;;;;;21.70;13.70;;;;;;;3.75;54.09;97563.92;108106;1270;44992;-73
2022/03/25 01:29:38;;;;;;;22.00;15.00;;;;;;;3.76;54.10;97566.86;108108;1270;30113;-73
2022/03/25 01:32:10;;;;;;;24.30;13.70;;;;;;;3.74;54.21;97562.29;108082;1268;42415;-73
2022/03/25 01:34:41;;;;;;;24.80;14.70;;;;;;;3.70;54.36;97562.99;108094;1270;41999;-73
2022/03/25 01:37:11;;;;;;;;;;;;;;;3.74;54.52;97561.43;108080;1270;40560;-73
2022/03/25 01:39:42;;;;;;;18.10;12.20;;;;;;;3.73;54.41;97562.41;108114;1270;40947;-74
2022/03/25 01:42:13;;;;;;;22.20;13.10;;;;;;;3.65;54.65;97564.84;108100;1270;39939;-73
2022/03/25 01:44:44;;;;;;;23.90;14.40;;;;;;;3.61;54.75;97562.36;108114;1270;40583;-73
2022/03/25 01:47:18;;;;;;;22.60;13.70;;;;;;;3.59;55.06;97562.24;108142;1269;28099;-73
2022/03/25 01:49:49;;;;;;;24.70;14.30;;;;;;;3.58;54.80;97560.27;108039;1270;38203;-73
2022/03/25 01:52:20;;;;;;;20.20;12.80;;;;;;;3.55;54.87;97562.80;108093;1269;44427;-74
2022/03/25 01:54:51;;;;;;;25.10;14.10;;;;;;;3.55;54.66;97565.41;108063;1270;40617;-73
2022/03/25 01:57:26;;;;;;;21.10;13.60;;;;;;;3.57;54.70;97562.91;108111;1268;39925;-73
2022/03/25 01:59:58;;;;;;;24.90;13.90;;;;;;;3.58;54.59;97564.10;108187;1268;41453;-73
2022/03/25 02:02:29;;;;;;;23.00;12.30;;;;;;;3.57;54.91;97560.04;108147;1270;31201;-74
2022/03/25 02:05:00;;;;;;;25.50;15.70;;;;;;;3.57;55.02;97559.64;108144;1270;28393;-74
2022/03/25 02:07:31;;;;;;;25.10;14.70;;;;;;;3.57;55.04;97560.93;108134;1269;29297;-74
2022/03/25 02:10:02;;;;;;;28.70;15.00;;;;;;;3.54;55.05;97561.48;108151;1268;35507;-74
2022/03/25 02:12:35;;;;;;;23.90;14.40;;;;;;;3.49;55.13;97559.91;108131;1270;41230;-73
2022/03/25 02:15:08;;;;;;;25.50;13.50;;;;;;;3.47;55.13;97561.58;108042;1268;41487;-74
2022/03/25 02:17:39;;;;;;;25.70;13.80;;;;;;;3.47;55.16;97560.98;108122;1268;41252;-73
2022/03/25 02:20:12;;;;;;;22.20;13.80;;;;;;;3.47;55.73;97566.50;108121;1268;42127;-73
2022/03/25 02:22:43;;;;;;;20.40;13.40;;;;;;;3.42;55.71;97567.17;108122;1270;39811;-73
2022/03/25 02:25:18;;;;;;;22.50;12.80;;;;;;;3.42;55.68;97567.17;108099;1268;39117;-73
2022/03/25 02:27:49;;;;;;;20.30;12.60;;;;;;;3.43;55.99;97565.80;108106;1268;41410;-73
2022/03/25 02:30:20;;;;;;;21.70;12.50;;;;;;;3.47;56.24;97567.27;108083;1270;46538;-74
2022/03/25 02:32:51;;;;;;;21.40;12.50;;;;;;;3.49;56.24;97569.66;108089;1270;43980;-73
2022/03/25 02:35:35;;;;;;;16.40;11.60;;;;;;;3.51;56.14;97575.75;108105;1270;41946;-73
2022/03/25 02:38:06;;;;;;;21.40;11.70;;;;;;;3.45;56.34;97570.78;108107;1268;27822;-73
2022/03/25 02:40:38;;;;;;;21.30;12.40;;;;;;;3.41;56.72;97569.08;108134;1268;41402;-74
2022/03/25 02:43:11;;;;;;;24.70;14.00;;;;;;;3.38;56.91;97567.71;108145;1270;29371;-73
2022/03/25 02:45:42;;;;;;;23.90;14.50;;;;;;;3.36;57.27;97570.05;108122;1270;32663;-73
2022/03/25 02:48:13;;;;;;;24.00;14.00;;;;;;;3.33;57.22;97571.52;108116;1270;40481;-74
2022/03/25 02:50:46;;;;;;;23.30;15.00;;;;;;;3.30;57.21;97570.81;108072;1270;44244;-73
2022/03/25 02:53:17;;;;;;;22.00;13.40;;;;;;;3.24;57.11;97571.02;108122;1270;41171;-74
2022/03/25 02:55:48;;;;;;;23.70;14.30;;;;;;;3.23;57.00;97575.34;108118;1270;33112;-73
2022/03/25 02:58:20;;;;;;;25.80;15.40;;;;;;;3.28;57.49;97580.50;108032;1270;28729;-73
2022/03/25 03:00:51;;;;;;;21.60;13.40;;;;;;;3.28;57.15;97577.32;108069;1270;41139;-73
2022/03/25 03:03:22;;;;;;;18.40;11.10;;;;;;;3.30;57.40;97575.65;108074;1270;41123;-73
2022/03/25 03:05:53;;;;;;;24.90;14.50;;;;;;;3.32;57.23;97576.16;108034;1270;46090;-73
2022/03/25 03:08:24;;;;;;;25.00;12.90;;;;;;;3.33;57.32;97575.96;108056;1270;45271;-73
2022/03/25 03:10:55;;;;;;;23.60;12.00;;;;;;;3.33;57.18;97574.06;108203;1270;46715;-73
2022/03/25 03:13:26;;;;;;;24.80;12.70;;;;;;;3.32;56.89;97573.02;108039;1269;47858;-73
2022/03/25 03:15:57;;;;;;;23.80;14.10;;;;;;;3.27;57.21;97570.11;107984;1271;43217;-73
2022/03/25 03:18:27;;;;;;;21.40;13.60;;;;;;;3.24;57.04;97575.56;108161;1268;32736;-74
2022/03/25 03:20:58;;;;;;;22.70;12.60;;;;;;;3.21;57.17;97573.90;108166;1270;31190;-73
2022/03/25 03:23:29;;;;;;;22.60;13.30;;;;;;;3.13;57.44;97573.73;108173;1269;31786;-73
2022/03/25 03:26:00;;;;;;;18.10;10.30;;;;;;;3.09;57.27;97574.27;107976;1270;36037;-75
2022/03/25 03:28:31;;;;;;;22.10;11.90;;;;;;;3.06;57.59;97575.33;108120;1270;41638;-74
2022/03/25 03:31:02;;;;;;;21.70;12.60;;;;;;;3.15;57.84;97579.25;108100;1270;27974;-73
2022/03/25 03:33:33;;;;;;;24.00;12.70;;;;;;;3.21;57.37;97575.95;108058;1270;70897;-74
2022/03/25 03:36:04;;;;;;;23.10;13.30;;;;;;;3.18;57.19;97574.13;108076;1270;55732;-73
2022/03/25 03:38:35;;;;;;;21.90;12.80;;;;;;;3.16;57.30;97576.71;108057;1270;45558;-73
2022/03/25 03:41:06;;;;;;;20.20;11.80;;;;;;;3.12;57.13;97575.20;108127;1270;40719;-73
2022/03/25 03:43:37;;;;;;;18.20;11.20;;;;;;;3.09;57.28;97571.05;108136;1270;44583;-73
2022/03/25 03:46:08;;;;;;;22.20;13.60;;;;;;;3.07;57.19;97576.01;108100;1270;41265;-73
2022/03/25 03:48:39;;;;;;;22.10;11.60;;;;;;;3.04;57.09;97575.02;107994;1270;43296;-73
2022/03/25 03:51:10;;;;;;;21.30;12.60;;;;;;;3.02;57.11;97572.97;108098;1270;46447;-73
2022/03/25 03:53:41;;;;;;;20.50;12.40;;;;;;;3.02;57.23;97570.91;108144;1268;29096;-73
2022/03/25 03:56:12;;;;;;;18.70;11.50;;;;;;;2.96;57.27;97573.75;108080;1270;85794;-73
2022/03/25 03:58:43;;;;;;;18.90;11.60;;;;;;;2.91;57.16;97577.63;108098;1270;46352;-73
2022/03/25 04:01:13;;;;;;;17.20;10.80;;;;;;;2.85;57.45;97577.37;108081;1270;75769;-73
2022/03/25 04:03:44;;;;;;;18.10;11.30;;;;;;;2.82;57.76;97575.56;107963;1270;42622;-73
2022/03/25 04:06:15;;;;;;;19.60;11.30;;;;;;;2.79;57.76;97579.58;108129;1270;45846;-73
2022/03/25 04:08:46;;;;;;;20.00;11.40;;;;;;;2.78;57.62;97575.92;108072;1270;90419;-73
2022/03/25 04:11:17;;;;;;;21.20;11.60;;;;;;;2.76;57.69;97573.71;108145;1270;36075;-73
2022/03/25 04:13:47;;;;;;;19.00;11.60;;;;;;;2.75;57.55;97575.77;108133;1270;63956;-73
2022/03/25 04:16:16;;;;;;;;;;;;;;;2.73;57.68;97575.13;108173;1270;31338;-73
2022/03/25 04:18:47;;;;;;;19.00;10.90;;;;;;;2.71;57.71;97577.48;108017;1270;61397;-73
2022/03/25 04:21:18;;;;;;;20.20;10.80;;;;;;;2.72;57.59;97581.14;108104;1270;41579;-73
2022/03/25 04:23:49;;;;;;;18.60;11.20;;;;;;;2.71;57.79;97579.77;108008;1270;38070;-73
2022/03/25 04:26:20;;;;;;;23.00;13.60;;;;;;;2.70;57.74;97583.77;108110;1270;34687;-73
2022/03/25 04:28:51;;;;;;;22.60;14.60;;;;;;;2.72;57.95;97585.73;108053;1270;65299;-73
2022/03/25 04:31:22;;;;;;;19.70;11.90;;;;;;;2.75;57.85;97586.65;108093;1270;45991;-73
2022/03/25 04:33:53;;;;;;;19.70;12.10;;;;;;;2.77;58.21;97582.70;108100;1268;43691;-73
2022/03/25 04:36:24;;;;;;;19.50;12.70;;;;;;;2.78;57.92;97582.73;108114;1270;51649;-73
2022/03/25 04:38:54;;;;;;;23.00;13.30;;;;;;;2.79;58.23;97586.23;108009;1270;87682;-73
2022/03/25 04:41:25;;;;;;;19.30;12.80;;;;;;;2.78;58.13;97583.00;108081;1270;65350;-73
2022/03/25 04:43:56;;;;;;;19.90;13.00;;;;;;;2.76;58.08;97579.63;108155;1270;27812;-73
2022/03/25 04:46:27;;;;;;;22.00;13.30;;;;;;;2.81;58.33;97582.00;108162;1268;63024;-73
2022/03/25 04:48:58;;;;;;;19.30;12.40;;;;;;;2.93;58.20;97582.21;108166;1270;55908;-73
2022/03/25 04:51:28;;;;;;;21.50;13.40;;;;;;;3.05;58.08;97585.85;108170;1270;56226;-73
2022/03/25 04:53:59;;;;;;;20.30;12.70;;;;;;;3.21;58.00;97587.17;108195;1270;36768;-73
2022/03/25 04:56:30;;;;;;;23.30;12.80;;;;;;;3.46;57.80;97590.98;108119;1268;48483;-75
2022/03/25 04:59:02;;;;;;;21.40;13.20;;;;;;;3.75;57.46;97589.75;108003;1270;91574;-74
2022/03/25 05:01:33;;;;;;;24.90;13.40;;;;;;;4.07;57.27;97593.38;108105;1268;38924;-74
2022/03/25 05:04:04;;;;;;;21.40;13.30;;;;;;;4.35;56.76;97591.89;108124;1268;66994;-73
2022/03/25 05:06:34;;;;;;;19.80;13.20;;;;;;;4.78;56.43;97595.36;107934;1271;35605;-73
2022/03/25 05:09:06;;;;;;;20.90;13.80;;;;;;;5.23;55.74;97593.23;108070;1270;43790;-73
2022/03/25 05:11:38;;;;;;;21.10;13.20;;;;;;;5.61;55.09;97590.84;108104;1270;43015;-74
2022/03/25 05:14:10;;;;;;;22.50;13.80;;;;;;;5.99;54.67;97589.81;108108;1270;33830;-73
2022/03/25 05:16:41;;;;;;;20.50;13.00;;;;;;;6.44;53.81;97590.11;108057;1270;40560;-73
2022/03/25 05:19:12;;;;;;;19.00;12.20;;;;;;;6.89;53.50;97592.14;108151;1270;43757;-74
2022/03/25 05:21:43;;;;;;;18.00;12.10;;;;;;;7.32;52.21;97589.40;108059;1268;34505;-73
2022/03/25 05:24:14;;;;;;;18.90;12.90;;;;;;;7.72;51.86;97590.98;108173;1268;45822;-73
2022/03/25 05:26:45;;;;;;;17.90;12.50;;;;;;;8.22;51.11;97593.52;108068;1270;43213;-73
2022/03/25 05:29:16;;;;;;;18.70;13.10;;;;;;;8.60;49.85;97595.31;108135;1268;39752;-73
2022/03/25 05:31:47;;;;;;;19.80;12.50;;;;;;;8.74;48.97;97598.66;108095;1268;33378;-73
2022/03/25 05:34:18;;;;;;;21.00;12.20;;;;;;;8.85;48.64;97599.66;107980;1270;58391;-73
2022/03/25 05:36:49;;;;;;;18.40;12.80;;;;;;;9.27;48.11;97602.04;108093;1270;41158;-73
2022/03/25 05:39:21;;;;;;;17.70;12.00;;;;;;;9.57;47.47;97601.56;108118;1270;32151;-73
2022/03/25 05:41:52;;;;;;;16.40;12.00;;;;;;;10.07;47.05;97605.70;108093;1270;40668;-73
2022/03/25 05:44:23;;;;;;;20.20;11.90;;;;;;;10.64;46.09;97601.02;108101;1270;40010;-73
2022/03/25 05:46:53;;;;;;;18.80;13.80;;;;;;;10.99;45.23;97603.92;108095;1270;40078;-73
2022/03/25 05:49:24;;;;;;;18.40;13.50;;;;;;;11.24;44.31;97609.70;108161;1268;27587;-73
2022/03/25 05:51:55;;;;;;;17.70;13.30;;;;;;;11.55;43.39;97610.73;108218;1270;31568;-73
2022/03/25 05:54:26;;;;;;;17.80;13.00;;;;;;;11.89;42.65;97616.42;108157;1268;40423;-73
2022/03/25 05:56:57;;;;;;;20.70;13.90;;;;;;;12.00;42.05;97616.61;108163;1270;38228;-73
2022/03/25 05:59:28;;;;;;;20.60;14.50;;;;;;;12.10;41.55;97618.22;108138;1270;37649;-73
2022/03/25 06:01:59;;;;;;;17.10;12.10;;;;;;;12.49;41.02;97618.34;108163;1270;41184;-73
2022/03/25 06:04:30;;;;;;;21.00;14.50;;;;;;;12.73;40.43;97619.02;108136;1270;43202;-73
2022/03/25 06:07:01;;;;;;;16.80;13.00;;;;;;;13.10;40.31;97621.23;108083;1270;57173;-74
2022/03/25 06:09:32;;;;;;;19.30;14.50;;;;;;;13.56;39.22;97623.52;107984;1270;41457;-74
2022/03/25 06:12:03;;;;;;;17.40;14.00;;;;;;;13.69;38.79;97623.20;108133;1268;30989;-74
2022/03/25 06:14:34;;;;;;;18.20;14.50;;;;;;;13.92;37.90;97620.23;108088;1270;43475;-74
2022/03/25 06:17:05;;;;;;;18.70;13.70;;;;;;;13.82;37.37;97620.38;108144;1270;32827;-73
2022/03/25 06:19:36;;;;;;;16.10;13.10;;;;;;;13.68;37.35;97623.64;108078;1270;44340;-74
2022/03/25 06:22:07;;;;;;;16.90;13.20;;;;;;;14.06;37.09;97619.08;108157;1269;30878;-73
2022/03/25 06:24:38;;;;;;;16.60;13.60;;;;;;;14.13;36.83;97620.48;108131;1270;38986;-74
2022/03/25 06:27:11;;;;;;;17.00;13.60;;;;;;;14.37;36.12;97620.02;108077;1270;40558;-74
2022/03/25 06:29:42;;;;;;;16.40;13.50;;;;;;;14.44;35.85;97620.40;108125;1270;33749;-73
2022/03/25 06:32:13;;;;;;;16.80;13.30;;;;;;;14.63;35.09;97622.73;108132;1270;40369;-74
2022/03/25 06:34:44;;;;;;;16.70;13.20;;;;;;;14.67;35.04;97626.06;108113;1270;29381;-74
2022/03/25 06:37:15;;;;;;;17.60;13.50;;;;;;;14.83;34.71;97621.81;108127;1270;26445;-74
2022/03/25 06:39:46;;;;;;;17.40;13.20;;;;;;;14.98;34.40;97624.30;108102;1270;39240;-74
2022/03/25 06:42:17;;;;;;;14.80;12.20;;;;;;;15.14;34.17;97622.91;108086;1270;40086;-74
2022/03/25 06:44:47;;;;;;;17.20;13.90;;;;;;;15.45;33.84;97625.05;108088;1270;42518;-73
2022/03/25 06:47:18;;;;;;;15.80;12.80;;;;;;;15.67;33.43;97623.74;108020;1270;38477;-74
2022/03/25 06:49:50;;;;;;;17.10;13.10;;;;;;;15.75;32.99;97623.17;107902;1271;35586;-74
2022/03/25 06:52:22;;;;;;;17.80;14.00;;;;;;;15.84;32.79;97624.77;108094;1270;46354;-74
2022/03/25 06:54:54;;;;;;;20.10;14.40;;;;;;;16.22;32.84;97624.11;108104;1270;30944;-74
2022/03/25 06:57:25;;;;;;;15.60;13.90;;;;;;;16.76;32.15;97626.69;107954;1271;37650;-74
2022/03/25 06:59:57;;;;;;;16.10;12.80;;;;;;;17.28;31.71;97626.36;108116;1270;39998;-74
2022/03/25 07:02:29;;;;;;;16.30;13.40;;;;;;;17.52;31.18;97629.05;108088;1270;34876;-74
2022/03/25 07:05:02;;;;;;;16.00;14.10;;;;;;;18.03;31.00;97630.98;108142;1270;34624;-74
2022/03/25 07:07:37;;;;;;;17.90;13.80;;;;;;;18.24;30.24;97630.89;107899;1271;43662;-75
2022/03/25 07:10:11;;;;;;;14.50;12.60;;;;;;;18.71;30.49;97632.98;108139;1268;28230;-75
2022/03/25 07:12:44;;;;;;;15.30;13.10;;;;;;;19.12;29.56;97634.14;108119;1270;39782;-74
2022/03/25 07:15:15;;;;;;;17.50;14.00;;;;;;;19.62;29.22;97634.12;108123;1270;37037;-74
2022/03/25 07:17:47;;;;;;;15.90;13.80;;;;;;;20.17;28.42;97637.72;108160;1269;28913;-74
2022/03/25 07:20:20;;;;;;;15.10;12.80;;;;;;;20.51;28.11;97635.52;108092;1270;36357;-74
2022/03/25 07:22:52;;;;;;;16.50;13.60;;;;;;;20.62;26.58;97638.15;108057;1270;73088;-74
2022/03/25 07:25:25;;;;;;;16.80;14.20;;;;;;;20.70;27.05;97639.59;108091;1270;41242;-74
2022/03/25 07:27:56;;;;;;;13.40;10.60;;;;;;;20.64;26.84;97636.13;108117;1270;41510;-75
2022/03/25 07:30:28;;;;;;;16.20;12.80;;;;;;;20.43;25.59;97639.88;108101;1270;29798;-75
2022/03/25 07:32:59;;;;;;;16.60;12.40;;;;;;;19.86;26.08;97638.36;108187;1270;29829;-75
2022/03/25 07:35:31;;;;;;;17.10;12.60;;;;;;;20.76;27.32;97640.11;108230;1270;45036;-75
2022/03/25 07:38:02;;;;;;;15.50;11.80;;;;;;;22.60;26.72;97638.89;107973;1270;39694;-75
2022/03/25 07:40:33;;;;;;;14.60;11.80;;;;;;;23.99;26.44;97635.17;108138;1270;35123;-75
2022/03/25 07:43:04;;;;;;;16.20;12.80;;;;;;;25.49;25.43;97634.42;108092;1270;44698;-75
2022/03/25 07:45:35;;;;;;;16.70;12.50;;;;;;;25.83;23.59;97627.66;108116;1270;38655;-75
2022/03/25 07:48:07;;;;;;;18.50;13.70;;;;;;;24.78;21.26;97636.86;108142;1268;42201;-75
2022/03/25 07:50:38;;;;;;;15.80;12.70;;;;;;;23.02;21.75;97643.25;107917;1270;43590;-75
2022/03/25 07:53:10;;;;;;;14.20;12.40;;;;;;;22.13;22.88;97644.95;108036;1270;43974;-75
2022/03/25 07:55:42;;;;;;;13.30;11.10;;;;;;;22.30;23.48;97650.23;108116;1269;51388;-75
2022/03/25 07:58:18;;;;;;;15.80;11.00;;;;;;;22.61;23.13;97650.00;108130;1270;34525;-75
2022/03/25 08:00:50;;;;;;;15.50;10.90;;;;;;;23.31;23.53;97649.66;108085;1270;44923;-75
2022/03/25 08:03:22;;;;;;;12.30;11.00;;;;;;;24.31;22.74;97647.48;108123;1270;45600;-75
2022/03/25 08:05:54;;;;;;;12.60;10.90;;;;;;;24.28;21.10;97647.39;108053;1270;45690;-75
2022/03/25 08:08:25;;;;;;;14.00;11.80;;;;;;;23.71;21.42;97649.86;108154;1270;40982;-74
2022/03/25 08:10:56;;;;;;;13.80;10.70;;;;;;;23.48;21.43;97652.56;108086;1270;46990;-75
2022/03/25 08:13:28;;;;;;;13.40;10.90;;;;;;;23.05;21.35;97654.73;108143;1268;30615;-75
2022/03/25 08:15:59;;;;;;;10.10;8.20;;;;;;;22.51;21.90;97654.82;108145;1270;33800;-75
2022/03/25 08:18:30;;;;;;;11.00;9.20;;;;;;;22.56;22.63;97652.11;108131;1270;47625;-75
2022/03/25 08:21:01;;;;;;;9.70;8.40;;;;;;;23.61;22.52;97650.45;108110;1270;40753;-74
2022/03/25 08:29:12;;;;;;;12.10;8.50;;;;;;;21.95;21.68;97653.20;108100;1270;42124;-74
2022/03/25 08:31:43;;;;;;;12.40;10.00;;;;;;;22.06;22.41;97656.16;108086;1270;32009;-75
2022/03/25 08:34:15;;;;;;;12.00;8.50;;;;;;;22.77;22.23;97659.27;108137;1270;41822;-74
2022/03/25 08:36:48;;;;;;;11.80;8.60;;;;;;;23.03;21.81;97657.48;108099;1270;39337;-74
2022/03/25 08:39:22;;;;;;;8.70;6.70;;;;;;;23.46;22.49;97657.07;108133;1270;41240;-74
2022/03/25 08:41:54;;;;;;;9.20;6.40;;;;;;;24.30;22.55;97661.08;108130;1270;45278;-74
2022/03/25 08:44:26;;;;;;;8.20;4.90;;;;;;;25.45;21.95;97656.45;108135;1270;38897;-74
2022/03/25 08:46:58;;;;;;;11.70;6.80;;;;;;;25.65;20.15;97657.03;108131;1270;40745;-74
2022/03/25 08:49:32;;;;;;;8.60;5.30;;;;;;;23.35;20.21;97661.59;108165;1268;63100;-74
2022/03/25 08:52:05;;;;;;;8.60;4.60;;;;;;;22.34;21.37;97669.05;108060;1270;45623;-74
2022/03/25 08:54:37;;;;;;;9.70;4.70;;;;;;;22.37;21.81;97669.52;108169;1269;44026;-73
2022/03/25 08:57:08;;;;;;;7.60;5.20;;;;;;;22.95;22.31;97665.29;108134;1268;45716;-74
2022/03/25 08:59:39;;;;;;;7.20;3.80;;;;;;;23.48;21.77;97669.60;108059;1269;86955;-74
2022/03/25 09:02:10;;;;;;;9.70;4.80;;;;;;;23.10;21.95;97670.86;108048;1268;48063;-74
2022/03/25 09:04:41;;;;;;;7.70;5.00;;;;;;;23.13;22.43;97667.39;107963;1270;42626;-73
2022/03/25 09:07:13;;;;;;;12.40;7.40;;;;;;;24.00;22.27;97667.24;108075;1270;43149;-74
2022/03/25 09:09:44;;;;;;;9.90;5.80;;;;;;;23.27;20.82;97665.42;108185;1270;31898;-74
2022/03/25 09:12:15;;;;;;;9.40;4.70;;;;;;;22.03;21.96;97664.79;108136;1270;39733;-73
2022/03/25 09:14:46;;;;;;;9.30;5.20;;;;;;;20.88;22.55;97668.77;108189;1270;34323;-73
2022/03/25 09:17:17;;;;;;;10.80;5.50;;;;;;;20.52;24.39;97669.20;108135;1270;39198;-73
2022/03/25 09:19:48;;;;;;;12.40;5.70;;;;;;;20.90;24.78;97667.35;108070;1270;47426;-74
2022/03/25 09:22:19;;;;;;;7.90;4.60;;;;;;;20.97;24.97;97664.56;108071;1270;33791;-74
2022/03/25 09:24:50;;;;;;;9.20;5.80;;;;;;;20.66;25.37;97666.35;107948;1270;42640;-74
2022/03/25 09:27:21;;;;;;;7.20;5.40;;;;;;;19.66;24.81;97660.75;108099;1270;40589;-73
2022/03/25 09:29:53;;;;;;;8.90;5.10;;;;;;;18.19;26.16;97665.24;108075;1270;46774;-74
2022/03/25 09:32:24;;;;;;;9.40;6.10;;;;;;;17.16;27.38;97663.73;108116;1268;42735;-73
2022/03/25 09:35:11;;;;;;;8.90;5.40;;;;;;;16.95;28.37;97669.07;107924;1271;35674;-73
2022/03/25 09:37:45;;;;;;;10.60;6.40;;;;;;;16.74;28.47;97670.35;108126;1270;33228;-74
2022/03/25 09:40:18;;;;;;;7.50;4.80;;;;;;;16.67;29.29;97666.08;108042;1270;40197;-74
2022/03/25 09:42:51;;;;;;;10.30;5.70;;;;;;;16.84;29.38;97665.49;108080;1270;43189;-74
2022/03/25 09:45:23;;;;;;;10.70;5.90;;;;;;;16.60;29.77;97664.44;108092;1270;51794;-74
2022/03/25 09:47:55;;;;;;;11.20;6.40;;;;;;;16.70;29.88;97662.18;108101;1270;40098;-72
2022/03/25 09:50:31;;;;;;;10.90;6.50;;;;;;;16.40;29.33;97660.94;108179;1271;32662;-74
2022/03/25 09:53:02;;;;;;;11.30;6.20;;;;;;;15.99;30.01;97671.39;108109;1270;41122;-75
2022/03/25 09:55:35;;;;;;;10.00;5.70;;;;;;;15.72;30.46;97669.93;108032;1270;32375;-74
2022/03/25 09:58:06;;;;;;;9.70;6.30;;;;;;;15.70;30.94;97663.75;108103;1270;43951;-74
2022/03/25 10:00:38;;;;;;;8.60;6.00;;;;;;;15.89;31.21;97664.44;108090;1270;40276;-74
2022/03/25 10:03:09;;;;;;;14.20;7.00;;;;;;;16.10;30.79;97665.38;108084;1270;42459;-74
2022/03/25 10:05:56;;;;;;;12.00;7.70;;;;;;;16.12;30.81;97661.48;107897;1273;45528;-74
2022/03/25 10:08:38;;;;;;;12.30;6.60;;;;;;;15.95;31.07;97656.94;108155;1270;43264;-75
2022/03/25 10:11:27;;;;;;;12.80;6.80;;;;;;;15.77;31.70;97649.20;108042;1270;42544;-75
2022/03/25 10:14:18;;;;;;;9.00;5.90;;;;;;;15.83;32.59;97636.71;108067;1270;43476;-74
2022/03/25 10:16:51;;;;;;;9.80;5.70;;;;;;;16.06;32.14;97652.80;108063;1270;41676;-74
2022/03/25 10:19:23;;;;;;;10.30;5.70;;;;;;;16.21;32.02;97653.34;108067;1270;41100;-74
2022/03/25 10:21:56;;;;;;;10.80;5.20;;;;;;;16.51;32.13;97651.40;108139;1270;32599;-74
2022/03/25 10:24:44;;;;;;;10.20;5.40;;;;;;;16.52;31.29;97649.90;108085;1270;37420;-74
2022/03/25 10:27:21;;;;;;;9.50;5.40;;;;;;;15.74;31.72;97652.20;108042;1270;48562;-74
2022/03/25 10:29:54;;;;;;;10.70;4.80;;;;;;;15.50;33.06;97654.50;108092;1270;30760;-74
2022/03/25 10:32:27;;;;;;;8.20;4.10;;;;;;;15.99;33.28;97656.56;108061;1269;42586;-74
2022/03/25 10:35:09;;;;;;;6.20;4.40;;;;;;;16.36;32.63;97651.84;108127;1270;29062;-74
2022/03/25 10:37:56;;;;;;;8.60;5.10;;;;;;;16.06;31.76;97652.14;108042;1270;44688;-74
2022/03/25 10:40:27;;;;;;;9.10;5.20;;;;;;;15.49;32.61;97650.34;108082;1270;44279;-74
2022/03/25 10:43:09;;;;;;;9.60;5.50;;;;;;;15.69;32.83;97648.60;108084;1270;46715;-74
2022/03/25 10:45:42;;;;;;;10.40;5.80;;;;;;;15.96;33.25;97649.70;108074;1270;41877;-74
2022/03/25 10:48:18;;;;;;;8.60;5.50;;;;;;;16.29;32.92;97647.18;107921;1271;43305;-73
2022/03/25 10:51:04;;;;;;;10.10;6.00;;;;;;;16.53;32.83;97641.59;108066;1270;32855;-74
2022/03/25 10:53:37;;;;;;;11.70;6.30;;;;;;;16.74;32.50;97644.61;108123;1270;31157;-74
2022/03/25 10:56:10;;;;;;;11.30;6.90;;;;;;;16.79;31.81;97645.01;108012;1271;46812;-74
2022/03/25 10:58:51;;;;;;;11.20;6.50;;;;;;;16.45;31.97;97641.27;108116;1270;40579;-74
2022/03/25 11:01:22;;;;;;;11.00;6.00;;;;;;;16.42;32.11;97636.65;108106;1270;33305;-74
2022/03/25 11:03:54;;;;;;;9.20;5.80;;;;;;;16.40;32.11;97634.88;107910;1271;55150;-74
2022/03/25 11:06:25;;;;;;;11.00;6.50;;;;;;;16.31;31.84;97638.27;107991;1271;42098;-74
2022/03/25 11:08:56;;;;;;;13.00;7.40;;;;;;;16.01;32.38;97636.10;108057;1270;42626;-74
2022/03/25 11:11:28;;;;;;;11.90;6.00;;;;;;;16.07;32.32;97632.94;108064;1270;42075;-74
2022/03/25 11:13:59;;;;;;;12.80;6.20;;;;;;;16.16;32.65;97632.34;108014;1271;43383;-74
2022/03/25 11:16:30;;;;;;;14.30;5.90;;;;;;;16.27;32.48;97634.20;108092;1270;31266;-74
2022/03/25 11:19:02;;;;;;;7.80;5.20;;;;;;;16.44;32.55;97632.15;108138;1270;29257;-74
2022/03/25 11:21:36;;;;;;;8.00;5.00;;;;;;;16.46;31.73;97626.92;107973;1271;47535;-74
2022/03/25 11:24:14;;;;;;;11.10;6.00;;;;;;;16.32;32.03;97631.45;108070;1270;42540;-75
2022/03/25 11:26:48;;;;;;;11.30;6.90;;;;;;;16.31;32.28;97630.61;108050;1270;39918;-75
2022/03/25 11:29:22;;;;;;;10.00;6.10;;;;;;;16.39;32.56;97629.01;108102;1270;34706;-74
2022/03/25 11:32:11;;;;;;;9.70;5.80;;;;;;;16.47;31.77;97624.59;108104;1270;33589;-75
2022/03/25 11:34:44;;;;;;;11.70;6.20;;;;;;;16.07;31.84;97619.83;108027;1270;47728;-75
2022/03/25 11:37:23;;;;;;;12.20;6.20;;;;;;;16.09;32.11;97622.27;108033;1270;47094;-74
2022/03/25 11:40:29;;;;;;;11.30;5.90;;;;;;;16.11;32.24;97621.21;108077;1270;35137;-74
2022/03/25 11:43:12;;;;;;;8.70;5.60;;;;;;;16.40;32.55;97623.05;108101;1271;33591;-74
2022/03/25 11:45:44;;;;;;;11.70;5.80;;;;;;;16.62;31.87;97622.64;107991;1270;43902;-74
2022/03/25 11:48:42;;;;;;;11.30;6.00;;;;;;;16.70;31.46;97619.07;108087;1270;41327;-74